Time;durP1;ratioP1;P1;durP2;ratioP2;P2;SDS_P1;SDS_P2;PMS_P1;PMS_P2;Temp;Humidity;BMP_temperature;BMP_pressure;BME280_temperature;BME280_humidity;BME280_pressure;Samples;Min_cycle;Max_cycle;Signal;HPM_P1;HPM_P2
2023/04/24 00:00:26;;;;;;;5.00;4.50;;;;;;;-146.25;100.00;52181.66;2072672;28;35813;-73
2023/04/24 00:01:29;;;;;;;5.70;4.80;;;;;;;-146.25;100.00;52183.69;2072485;28;32946;-73
2023/04/24 00:02:32;;;;;;;5.10;4.60;;;;;;;-146.25;100.00;52185.72;2072567;28;32397;-73
2023/04/24 00:03:34;;;;;;;5.25;4.70;;;;;;;-146.25;100.00;52206.00;2072320;28;37498;-73
2023/04/24 00:04:40;;;;;;;6.05;4.70;;;;;;;-146.25;100.00;52193.81;2072542;28;37268;-73
2023/04/24 00:05:42;;;;;;;5.68;4.65;;;;;;;-146.25;100.00;52147.19;2072580;28;34858;-74
2023/04/24 00:06:43;;;;;;;6.10;4.55;;;;;;;-146.25;100.00;52183.69;2072251;28;38795;-73
2023/04/24 00:07:45;;;;;;;4.90;4.32;;;;;;;-146.25;100.00;52137.06;2073064;28;20123;-73
2023/04/24 00:08:47;;;;;;;4.68;4.25;;;;;;;-146.25;100.00;52181.66;2072238;28;38677;-73
2023/04/24 00:09:49;;;;;;;7.00;4.93;;;;;;;-146.25;100.00;52187.75;2072009;28;32561;-73
2023/04/24 00:10:52;;;;;;;6.18;4.60;;;;;;;-146.25;100.00;52163.41;2072513;28;30932;-73
2023/04/24 00:11:56;;;;;;;4.13;3.72;;;;;;;-146.25;100.00;52189.78;2072182;28;29534;-73
2023/04/24 00:12:58;;;;;;;3.80;3.50;;;;;;;-146.25;100.00;52210.03;2072276;28;35677;-73
2023/04/24 00:14:00;;;;;;;4.35;3.30;;;;;;;-146.25;100.00;52173.56;2072254;28;35549;-73
2023/04/24 00:15:03;;;;;;;3.83;3.50;;;;;;;-146.25;100.00;52167.47;2072512;28;35912;-73
2023/04/24 00:16:05;;;;;;;4.32;3.33;;;;;;;-146.25;100.00;52151.25;2079870;28;34501;-73
2023/04/24 00:17:07;;;;;;;2.83;2.63;;;;;;;-146.25;100.00;52177.59;2079608;28;37859;-73
2023/04/24 00:18:09;;;;;;;3.03;2.55;;;;;;;-146.25;100.00;52181.66;2071977;28;32633;-73
2023/04/24 00:19:11;;;;;;;2.72;1.88;;;;;;;-146.25;100.00;52175.56;2073040;28;36466;-73
2023/04/24 00:20:16;;;;;;;1.83;1.40;;;;;;;-146.25;100.00;52214.09;2071875;28;36259;-74
2023/04/24 00:21:18;;;;;;;2.90;1.30;;;;;;;-146.25;100.00;52139.09;2072433;28;34104;-73
2023/04/24 00:22:20;;;;;;;2.03;1.38;;;;;;;-146.25;100.00;52199.91;2072173;28;36560;-73
2023/04/24 00:23:25;;;;;;;0.80;0.70;;;;;;;-146.25;100.00;52189.78;2073303;28;20168;-73
2023/04/24 00:24:28;;;;;;;0.60;0.43;;;;;;;-146.25;100.00;52193.81;2072123;28;36857;-73
2023/04/24 00:25:31;;;;;;;0.90;0.47;;;;;;;-146.25;100.00;52183.69;2072337;28;36023;-73
2023/04/24 00:26:35;;;;;;;1.38;0.32;;;;;;;-146.25;100.00;52139.09;2072341;28;20034;-74
2023/04/24 00:27:39;;;;;;;1.08;0.40;;;;;;;-146.25;100.00;52177.59;2072512;28;26121;-74
2023/04/24 00:28:43;;;;;;;0.50;0.30;;;;;;;-146.25;100.00;52173.56;2072265;28;29868;-73
2023/04/24 00:29:45;;;;;;;0.57;0.40;;;;;;;-146.25;100.00;52165.44;2072456;28;28702;-73
2023/04/24 00:30:46;;;;;;;1.23;0.40;;;;;;;-146.25;100.00;52199.91;2072589;28;20049;-73
2023/04/24 00:31:48;;;;;;;0.70;0.50;;;;;;;-146.25;100.00;52199.91;2080242;28;20705;-73
2023/04/24 00:32:50;;;;;;;1.92;0.40;;;;;;;-146.25;100.00;52173.56;2080221;28;20085;-74
2023/04/24 00:33:52;;;;;;;1.45;0.50;;;;;;;-146.25;100.00;52161.38;2080271;28;29220;-73
2023/04/24 00:34:54;;;;;;;0.60;0.50;;;;;;;-146.25;100.00;52197.88;2079840;28;20176;-73
2023/04/24 00:35:58;;;;;;;0.73;0.47;;;;;;;-146.25;100.00;52167.47;2080145;28;20042;-73
2023/04/24 00:37:02;;;;;;;0.60;0.30;;;;;;;-146.25;100.00;52177.59;2079974;28;20049;-73
2023/04/24 00:38:04;;;;;;;0.50;0.30;;;;;;;-146.25;100.00;52197.88;2080429;28;20670;-73
2023/04/24 00:39:08;;;;;;;0.80;0.40;;;;;;;-146.25;100.00;52189.78;2072657;28;24653;-73
2023/04/24 00:40:12;;;;;;;0.68;0.40;;;;;;;-146.25;100.00;52191.81;2073356;28;20862;-73
2023/04/24 00:41:16;;;;;;;0.55;0.30;;;;;;;-146.25;100.00;52155.31;2079730;28;20049;-74
2023/04/24 00:42:19;;;;;;;1.17;0.30;;;;;;;-146.25;100.00;52193.81;2080683;28;25546;-73
2023/04/24 00:43:21;;;;;;;3.50;0.40;;;;;;;-146.25;100.00;52153.28;2072335;28;27261;-73
2023/04/24 00:44:23;;;;;;;1.15;0.70;;;;;;;-146.25;100.00;52191.81;2079811;28;34004;-73
2023/04/24 00:45:27;;;;;;;1.20;0.40;;;;;;;-146.25;100.00;52206.00;2080225;28;20937;-73
2023/04/24 00:46:31;;;;;;;1.40;0.40;;;;;;;-146.25;100.00;52151.25;2080328;28;20938;-73
2023/04/24 00:47:34;;;;;;;0.50;0.40;;;;;;;-146.25;100.00;52137.06;2071714;28;20085;-73
2023/04/24 00:48:37;;;;;;;0.55;0.38;;;;;;;-146.25;100.00;52208.03;2072906;28;20123;-73
2023/04/24 00:49:39;;;;;;;1.45;0.50;;;;;;;-146.25;100.00;52137.06;2071282;28;33997;-73
2023/04/24 00:50:41;;;;;;;1.40;0.57;;;;;;;-146.25;100.00;52175.56;2072572;28;20034;-72
2023/04/24 00:51:45;;;;;;;0.40;0.40;;;;;;;-146.25;100.00;52173.56;2071769;28;31015;-73
2023/04/24 00:52:47;;;;;;;0.93;0.63;;;;;;;-146.25;100.00;52159.34;2072418;28;28799;-73
2023/04/24 00:53:48;;;;;;;0.70;0.50;;;;;;;-146.25;100.00;52167.47;2071774;28;30646;-73
2023/04/24 00:54:50;;;;;;;0.88;0.60;;;;;;;-146.25;100.00;52157.34;2072417;28;32149;-73
2023/04/24 00:55:52;;;;;;;0.70;0.60;;;;;;;-146.25;100.00;52169.50;2071932;28;28084;-73
2023/04/24 00:56:54;;;;;;;2.70;0.70;;;;;;;-146.25;100.00;52173.56;2072234;28;20047;-73
2023/04/24 00:57:56;;;;;;;1.40;0.75;;;;;;;-146.25;100.00;52141.13;2072409;28;32089;-73
2023/04/24 00:58:58;;;;;;;1.13;0.73;;;;;;;-146.25;100.00;52163.41;2080477;28;25311;-73
2023/04/24 01:00:03;;;;;;;2.17;1.30;;;;;;;-146.25;100.00;52187.75;2072114;28;20042;-72
2023/04/24 01:01:06;;;;;;;1.52;0.85;;;;;;;-146.25;100.00;52177.59;2072860;28;20268;-73
2023/04/24 01:02:10;;;;;;;3.47;0.90;;;;;;;-146.25;100.00;52153.28;2079561;28;20158;-73
2023/04/24 01:03:13;;;;;;;1.33;1.23;;;;;;;-146.25;100.00;52197.88;2079514;28;34281;-73
2023/04/24 01:04:17;;;;;;;0.93;0.80;;;;;;;-146.25;100.00;52153.28;2080522;28;20824;-73
2023/04/24 01:05:21;;;;;;;1.35;0.95;;;;;;;-146.25;100.00;52163.41;2071710;28;31375;-73
2023/04/24 01:06:26;;;;;;;1.05;0.95;;;;;;;-146.25;100.00;52169.50;2071792;28;31087;-73
2023/04/24 01:07:34;;;;;;;1.38;0.93;;;;;;;-146.25;100.00;52141.13;2079213;28;20102;-73
2023/04/24 01:08:36;;;;;;;4.40;1.20;;;;;;;-146.25;100.00;52206.00;2071746;28;27182;-73
2023/04/24 01:09:41;;;;;;;2.90;1.23;;;;;;;-146.25;100.00;52173.56;2071557;28;30121;-73
2023/04/24 01:10:45;;;;;;;1.35;1.10;;;;;;;-146.25;100.00;52169.50;2079893;28;20045;-73
2023/04/24 01:11:47;;;;;;;1.98;1.25;;;;;;;-146.25;100.00;52173.56;2079349;28;30394;-73
2023/04/24 01:12:51;;;;;;;3.28;1.35;;;;;;;-146.25;100.00;52191.81;2079778;28;20895;-73
2023/04/24 01:13:53;;;;;;;1.92;1.50;;;;;;;-146.25;100.00;52185.72;2079788;28;28951;-73
2023/04/24 01:14:56;;;;;;;1.40;1.30;;;;;;;-146.25;100.00;52147.19;2071796;28;27709;-73
2023/04/24 01:15:58;;;;;;;2.42;1.15;;;;;;;-146.25;100.00;52177.59;2072050;28;20054;-73
2023/04/24 01:17:01;;;;;;;1.73;1.30;;;;;;;-146.25;100.00;52181.66;2080074;28;20069;-73
2023/04/24 01:18:03;;;;;;;1.88;1.17;;;;;;;-146.25;100.00;52181.66;2079262;28;31348;-73
2023/04/24 01:19:10;;;;;;;1.85;1.40;;;;;;;-146.25;100.00;52169.50;2079669;28;29846;-73
2023/04/24 01:20:13;;;;;;;2.53;1.27;;;;;;;-146.25;100.00;52161.38;2079543;28;29751;-73
2023/04/24 01:21:18;;;;;;;1.70;1.27;;;;;;;-146.25;100.00;52197.88;2079791;28;20140;-73
2023/04/24 01:22:20;;;;;;;1.40;1.30;;;;;;;-146.25;100.00;52201.94;2072315;28;30244;-73
2023/04/24 01:23:22;;;;;;;1.60;1.38;;;;;;;-146.25;100.00;52157.34;2079780;28;25727;-73
2023/04/24 01:24:25;;;;;;;1.33;1.23;;;;;;;-146.25;100.00;52193.81;2079673;28;20094;-73
2023/04/24 01:25:27;;;;;;;1.60;1.50;;;;;;;-146.25;100.00;52177.59;2079581;28;28319;-73
2023/04/24 01:26:32;;;;;;;1.40;1.30;;;;;;;-146.25;100.00;52173.56;2072028;28;20157;-73
2023/04/24 01:27:34;;;;;;;3.17;1.30;;;;;;;-146.25;100.00;52210.03;2071897;28;26288;-73
2023/04/24 01:28:36;;;;;;;1.13;1.02;;;;;;;-146.25;100.00;52161.38;2079512;28;33807;-73
2023/04/24 01:29:40;;;;;;;3.72;1.48;;;;;;;-146.25;100.00;52169.50;2071543;28;20165;-73
2023/04/24 01:30:44;;;;;;;1.42;1.05;;;;;;;-146.25;100.00;52201.94;2072402;28;20097;-73
2023/04/24 01:31:46;;;;;;;1.50;1.20;;;;;;;-146.25;100.00;52173.56;2079071;28;31555;-73
2023/04/24 01:32:49;;;;;;;1.30;1.10;;;;;;;-146.25;100.00;52165.44;2079821;28;20046;-73
2023/04/24 01:33:52;;;;;;;1.33;1.20;;;;;;;-146.25;100.00;52189.78;2079890;28;21478;-73
2023/04/24 01:34:55;;;;;;;1.73;1.13;;;;;;;-146.25;100.00;52193.81;2079864;28;20905;-74
2023/04/24 01:35:57;;;;;;;1.70;1.23;;;;;;;-146.25;100.00;52203.97;2071496;28;24264;-73
2023/04/24 01:37:00;;;;;;;1.60;1.23;;;;;;;-146.25;100.00;52222.22;2071369;28;24924;-73
2023/04/24 01:38:05;;;;;;;1.08;0.98;;;;;;;-146.25;100.00;52181.66;2079701;28;20049;-73
2023/04/24 01:39:07;;;;;;;1.77;1.10;;;;;;;-146.25;100.00;52157.34;2079939;28;26822;-73
2023/04/24 01:40:09;;;;;;;1.20;1.10;;;;;;;-146.25;100.00;52203.97;2078576;28;26415;-74
2023/04/24 01:41:11;;;;;;;1.25;1.10;;;;;;;-146.25;100.00;52210.03;2079610;28;20050;-73
2023/04/24 01:42:14;;;;;;;1.67;1.00;;;;;;;-146.25;100.00;52181.66;2079730;28;28142;-74
2023/04/24 01:43:16;;;;;;;1.92;1.48;;;;;;;-146.25;100.00;52206.00;2071947;28;29685;-73
2023/04/24 01:44:18;;;;;;;1.33;1.10;;;;;;;-146.25;100.00;52214.09;2080134;28;20048;-73
2023/04/24 01:45:22;;;;;;;1.40;1.30;;;;;;;-146.25;100.00;52201.94;2079524;28;26001;-73
2023/04/24 01:46:24;;;;;;;1.05;0.95;;;;;;;-146.25;100.00;52187.75;2071724;28;28076;-74
2023/04/24 01:47:27;;;;;;;3.08;1.00;;;;;;;-146.25;100.00;52151.25;2072560;28;20034;-74
2023/04/24 01:48:31;;;;;;;1.63;1.30;;;;;;;-146.25;100.00;52187.75;2071966;28;27310;-74
2023/04/24 01:49:33;;;;;;;1.33;1.23;;;;;;;-146.25;100.00;52181.66;2079698;28;27072;-74
2023/04/24 01:50:34;;;;;;;1.63;1.52;;;;;;;-146.25;100.00;52169.50;2079275;28;21429;-73
2023/04/24 01:51:38;;;;;;;1.75;1.65;;;;;;;-146.25;100.00;52167.47;2072203;28;21012;-74
2023/04/24 01:52:40;;;;;;;1.65;1.55;;;;;;;-146.25;100.00;52193.81;2079585;28;20456;-73
2023/04/24 01:53:44;;;;;;;2.33;1.70;;;;;;;-146.25;100.00;52181.66;2078982;28;20426;-73
2023/04/24 01:54:45;;;;;;;2.72;1.88;;;;;;;-146.25;100.00;52191.81;2079294;28;34505;-74
2023/04/24 01:55:47;;;;;;;2.08;1.98;;;;;;;-146.25;100.00;52149.22;2079475;28;23868;-73
2023/04/24 01:56:49;;;;;;;2.08;1.70;;;;;;;-146.25;100.00;52216.13;2079502;28;20052;-73
2023/04/24 01:57:55;;;;;;;2.30;2.17;;;;;;;-146.25;100.00;52210.03;2079843;28;20042;-74
2023/04/24 01:58:57;;;;;;;2.22;2.13;;;;;;;-146.25;100.00;52195.84;2079169;28;37528;-73
2023/04/24 02:00:00;;;;;;;2.67;2.47;;;;;;;-146.25;100.00;52165.44;2079947;28;20042;-73
2023/04/24 02:01:06;;;;;;;2.47;2.30;;;;;;;-146.25;100.00;52177.59;2071892;28;20074;-73
2023/04/24 02:02:08;;;;;;;3.17;2.42;;;;;;;-146.25;100.00;52187.75;2070840;28;35440;-73
2023/04/24 02:03:10;;;;;;;2.40;2.22;;;;;;;-146.25;100.00;52163.41;2071188;28;31336;-74
2023/04/24 02:04:12;;;;;;;2.60;2.40;;;;;;;-146.25;100.00;52238.44;2079379;28;32931;-73
2023/04/24 02:05:14;;;;;;;3.17;2.65;;;;;;;-146.25;100.00;52165.44;2071069;28;31489;-73
2023/04/24 02:06:15;;;;;;;2.97;2.78;;;;;;;-146.25;100.00;52159.34;2071797;28;20034;-74
2023/04/24 02:07:17;;;;;;;2.90;2.60;;;;;;;-146.25;100.00;52177.59;2079202;28;29755;-73
2023/04/24 02:08:19;;;;;;;3.10;2.90;;;;;;;-146.25;100.00;52159.34;2071416;28;24757;-73
2023/04/24 02:09:23;;;;;;;3.22;2.92;;;;;;;-146.25;100.00;52185.72;2072078;28;20050;-73
2023/04/24 02:10:25;;;;;;;2.58;2.38;;;;;;;-146.25;100.00;52153.28;2071456;28;20054;-73
2023/04/24 02:11:29;;;;;;;3.17;2.95;;;;;;;-146.25;100.00;52187.75;2071921;28;20081;-73
2023/04/24 02:12:32;;;;;;;3.13;2.92;;;;;;;-146.25;100.00;52165.44;2079707;28;21024;-73
2023/04/24 02:13:34;;;;;;;2.92;2.72;;;;;;;-146.25;100.00;52201.94;2079103;28;30317;-73
2023/04/24 02:14:35;;;;;;;3.15;2.85;;;;;;;-146.25;100.00;52185.72;2072350;28;20031;-73
2023/04/24 02:15:37;;;;;;;3.53;3.22;;;;;;;-146.25;100.00;52214.09;2072110;28;20047;-73
2023/04/24 02:16:39;;;;;;;3.78;3.50;;;;;;;-146.25;100.00;52175.56;2071994;28;26678;-72
2023/04/24 02:17:41;;;;;;;3.10;2.90;;;;;;;-146.25;100.00;52169.50;2071524;28;21038;-73
2023/04/24 02:18:43;;;;;;;3.40;3.20;;;;;;;-146.25;100.00;52187.75;2071678;28;31640;-73
2023/04/24 02:19:48;;;;;;;3.95;3.65;;;;;;;-146.25;100.00;52212.06;2070489;28;20046;-73
2023/04/24 02:20:51;;;;;;;3.72;3.42;;;;;;;-146.25;100.00;52173.56;2071948;28;20887;-73
2023/04/24 02:21:52;;;;;;;4.30;3.85;;;;;;;-146.25;100.00;52181.66;2062506;28;30299;-73
2023/04/24 02:22:55;;;;;;;4.00;3.80;;;;;;;-146.25;100.00;52169.50;2063088;28;20086;-73
2023/04/24 02:23:57;;;;;;;4.05;3.65;;;;;;;-146.25;100.00;52191.81;2071220;28;26952;-73
2023/04/24 02:24:58;;;;;;;3.35;3.15;;;;;;;-146.25;100.00;52179.63;2071512;28;20039;-73
2023/04/24 02:26:00;;;;;;;3.70;3.40;;;;;;;-146.25;100.00;52193.81;2072053;28;25475;-73
2023/04/24 02:27:02;;;;;;;3.90;3.47;;;;;;;-146.25;100.00;52159.34;2078735;28;31672;-73
2023/04/24 02:28:04;;;;;;;3.95;3.65;;;;;;;-146.25;100.00;52141.13;2079067;28;30727;-73
2023/04/24 02:29:08;;;;;;;3.90;3.60;;;;;;;-146.25;100.00;52171.53;2079470;28;20812;-73
2023/04/24 02:30:11;;;;;;;3.53;3.22;;;;;;;-146.25;100.00;52197.88;2079661;28;20853;-73
2023/04/24 02:31:14;;;;;;;3.60;3.30;;;;;;;-146.25;100.00;52189.78;2079199;28;20057;-73
2023/04/24 02:32:16;;;;;;;4.03;3.42;;;;;;;-146.25;100.00;52177.59;2079258;28;28057;-74
2023/04/24 02:33:17;;;;;;;4.00;3.70;;;;;;;-146.25;100.00;52189.78;2079423;28;28725;-74
2023/04/24 02:34:19;;;;;;;3.67;3.38;;;;;;;-146.25;100.00;52208.03;2079620;28;20042;-73
2023/04/24 02:35:21;;;;;;;5.18;3.60;;;;;;;-146.25;100.00;52179.63;2079447;28;24160;-73
2023/04/24 02:36:23;;;;;;;3.50;3.20;;;;;;;-146.25;100.00;52167.47;2079096;28;31061;-74
2023/04/24 02:37:30;;;;;;;3.78;3.33;;;;;;;-146.25;100.00;52181.66;2071647;28;20879;-73
2023/04/24 02:38:31;;;;;;;3.70;3.40;;;;;;;-146.25;100.00;52191.81;2072300;28;24766;-73
2023/04/24 02:39:33;;;;;;;4.03;3.60;;;;;;;-146.25;100.00;52193.81;2078909;28;29409;-73
2023/04/24 02:40:35;;;;;;;4.32;3.72;;;;;;;-146.25;100.00;52206.00;2079632;28;20034;-73
2023/04/24 02:41:37;;;;;;;4.45;3.72;;;;;;;-146.25;100.00;52179.63;2079121;28;20054;-73
2023/04/24 02:42:39;;;;;;;4.28;3.95;;;;;;;-146.25;100.00;52185.72;2079293;28;20100;-73
2023/04/24 02:43:40;;;;;;;3.75;3.45;;;;;;;-146.25;100.00;52199.91;2079146;28;31961;-74
2023/04/24 02:44:42;;;;;;;3.92;3.55;;;;;;;-146.25;100.00;52183.69;2079533;28;20038;-73
2023/04/24 02:45:44;;;;;;;3.63;3.38;;;;;;;-146.25;100.00;52169.50;2071973;28;20046;-73
2023/04/24 02:46:46;;;;;;;4.05;3.65;;;;;;;-146.25;100.00;52191.81;2079455;28;20147;-73
2023/04/24 02:47:47;;;;;;;4.38;3.97;;;;;;;-146.25;100.00;52179.63;2079701;28;20046;-73
2023/04/24 02:48:49;;;;;;;4.18;3.78;;;;;;;-146.25;100.00;52169.50;2079025;28;23926;-74
2023/04/24 02:49:51;;;;;;;4.75;3.53;;;;;;;-146.25;100.00;52163.41;2079761;28;20053;-73
2023/04/24 02:50:53;;;;;;;4.57;4.18;;;;;;;-146.25;100.00;52197.88;2071627;28;30119;-74
2023/04/24 02:51:54;;;;;;;4.57;4.15;;;;;;;-146.25;100.00;52197.88;2078548;28;26135;-73
2023/04/24 02:52:58;;;;;;;4.55;4.05;;;;;;;-146.25;100.00;52193.81;2079367;28;21417;-73
2023/04/24 02:54:00;;;;;;;5.05;4.18;;;;;;;-146.25;100.00;52175.56;2078945;28;34969;-73
2023/04/24 02:55:02;;;;;;;4.88;4.47;;;;;;;-146.25;100.00;52212.06;2079343;28;20046;-73
2023/04/24 02:56:04;;;;;;;4.75;4.35;;;;;;;-146.25;100.00;52179.63;2079607;28;20935;-73
2023/04/24 02:57:06;;;;;;;5.90;4.68;;;;;;;-146.25;100.00;52177.59;2079091;28;20444;-73
2023/04/24 02:58:12;;;;;;;4.82;4.43;;;;;;;-146.25;100.00;52189.78;2079048;28;20073;-73
2023/04/24 02:59:14;;;;;;;4.93;4.50;;;;;;;-146.25;100.00;52197.88;2078717;28;20560;-73
2023/04/24 03:00:18;;;;;;;5.10;4.60;;;;;;;-146.25;100.00;52171.53;2079413;28;20082;-73
2023/04/24 03:01:20;;;;;;;5.18;4.68;;;;;;;-146.25;100.00;52206.00;2078612;28;28970;-73
2023/04/24 03:02:22;;;;;;;6.05;4.57;;;;;;;-146.25;100.00;52197.88;2072321;28;20134;-73
2023/04/24 03:03:24;;;;;;;5.78;5.18;;;;;;;-146.25;100.00;52191.81;2079141;28;20046;-73
2023/04/24 03:04:26;;;;;;;5.70;5.20;;;;;;;-146.25;100.00;52167.47;2071440;28;20043;-73
2023/04/24 03:05:28;;;;;;;5.75;5.25;;;;;;;-146.25;100.00;52153.28;2071482;28;20050;-73
2023/04/24 03:06:32;;;;;;;6.38;5.50;;;;;;;-146.25;100.00;52169.50;2079046;28;24037;-73
2023/04/24 03:07:35;;;;;;;5.60;5.10;;;;;;;-146.25;100.00;52181.66;2078748;28;29524;-73
2023/04/24 03:08:37;;;;;;;5.68;5.07;;;;;;;-146.25;100.00;52173.56;2079143;28;28546;-73
2023/04/24 03:09:38;;;;;;;5.03;4.60;;;;;;;-146.25;100.00;52157.34;2071341;28;27159;-73
2023/04/24 03:10:40;;;;;;;5.55;5.05;;;;;;;-146.25;100.00;52183.69;2072290;28;20124;-73
2023/04/24 03:11:42;;;;;;;6.15;5.18;;;;;;;-146.25;100.00;52185.72;2071667;28;20043;-73
2023/04/24 03:12:44;;;;;;;5.40;4.90;;;;;;;-146.25;100.00;52145.16;2071193;28;32604;-73
2023/04/24 03:13:45;;;;;;;5.35;4.85;;;;;;;-146.25;100.00;52153.28;2071662;28;20578;-73
2023/04/24 03:14:47;;;;;;;5.68;5.18;;;;;;;-146.25;100.00;52191.81;2071982;28;20031;-73
2023/04/24 03:15:49;;;;;;;5.82;5.30;;;;;;;-146.25;100.00;52181.66;2071492;28;23918;-73
2023/04/24 03:16:53;;;;;;;7.20;5.47;;;;;;;-146.25;100.00;52161.38;2071744;28;26932;-73
2023/04/24 03:17:55;;;;;;;5.68;5.07;;;;;;;-146.25;100.00;52183.69;2078392;28;40246;-73
2023/04/24 03:18:57;;;;;;;6.63;5.10;;;;;;;-146.25;100.00;52193.81;2079502;28;20872;-73
2023/04/24 03:20:02;;;;;;;6.63;4.93;;;;;;;-146.25;100.00;52181.66;2079330;28;20176;-73
2023/04/24 03:21:04;;;;;;;5.32;4.80;;;;;;;-146.25;100.00;52183.69;2079096;28;20034;-73
2023/04/24 03:22:08;;;;;;;5.53;5.03;;;;;;;-146.25;100.00;52133.00;2070837;28;20097;-73
2023/04/24 03:23:14;;;;;;;5.30;4.80;;;;;;;-146.25;100.00;52199.91;2071577;28;20121;-73
2023/04/24 03:24:16;;;;;;;5.57;5.07;;;;;;;-146.25;100.00;52165.44;2079267;28;20049;-73
2023/04/24 03:25:18;;;;;;;4.88;4.47;;;;;;;-146.25;100.00;52163.41;2079441;28;20040;-73
2023/04/24 03:26:20;;;;;;;5.22;4.65;;;;;;;-146.25;100.00;52183.69;2078960;28;20866;-73
2023/04/24 03:27:37;;;;;;;4.95;4.45;;;;;;;-146.25;100.00;52210.03;2079342;28;20176;-73
2023/04/24 03:28:45;;;;;;;5.22;4.72;;;;;;;-146.25;100.00;52165.44;2079409;28;20048;-73
2023/04/24 03:29:47;;;;;;;5.72;5.13;;;;;;;-146.25;100.00;52214.09;2078910;28;23469;-73
2023/04/24 03:30:51;;;;;;;5.55;4.80;;;;;;;-146.25;100.00;52175.56;2079866;28;20046;-73
2023/04/24 03:31:54;;;;;;;5.40;4.90;;;;;;;-146.25;100.00;52163.41;2080322;28;20111;-73
2023/04/24 03:32:56;;;;;;;5.70;5.10;;;;;;;-146.25;100.00;52187.75;2072809;28;20051;-73
2023/04/24 03:34:02;;;;;;;6.65;5.38;;;;;;;-146.25;100.00;52185.72;2073227;28;20043;-73
2023/04/24 03:35:07;;;;;;;5.25;4.80;;;;;;;-146.25;100.00;52179.63;2080524;28;20109;-73
2023/04/24 03:36:09;;;;;;;5.47;4.97;;;;;;;-146.25;100.00;52197.88;2071970;28;20049;-73
2023/04/24 03:37:15;;;;;;;6.40;5.38;;;;;;;-146.25;100.00;52185.72;2073500;28;20157;-73
2023/04/24 03:38:25;;;;;;;5.65;5.13;;;;;;;-146.25;100.00;52185.72;2072083;28;20177;-73
2023/04/24 03:39:40;;;;;;;5.70;5.20;;;;;;;-146.25;100.00;52185.72;2075687;28;20716;-73
2023/04/24 03:40:42;;;;;;;5.38;4.88;;;;;;;-146.25;100.00;52222.22;2080991;28;20042;-73
2023/04/24 03:42:13;;;;;;;5.72;4.78;;;;;;;-146.25;100.00;52212.06;2076130;28;20420;-73
2023/04/24 03:43:24;;;;;;;5.63;5.13;;;;;;;-146.25;100.00;52212.06;2080400;28;20097;-73
2023/04/24 03:44:26;;;;;;;4.95;4.53;;;;;;;-146.25;100.00;52183.69;2072317;28;20161;-73
2023/04/24 03:45:28;;;;;;;5.53;5.03;;;;;;;-146.25;100.00;52167.47;2072564;28;20129;-73
2023/04/24 03:46:31;;;;;;;5.80;5.15;;;;;;;-146.25;100.00;52193.81;2080605;28;20054;-73
2023/04/24 03:47:35;;;;;;;5.63;5.05;;;;;;;-146.25;100.00;52167.47;2080589;28;20097;-73
2023/04/24 03:48:40;;;;;;;5.28;4.78;;;;;;;-146.25;100.00;52218.16;2072480;28;20042;-73
2023/04/24 03:49:43;;;;;;;5.55;5.05;;;;;;;-146.25;100.00;52177.59;2072693;28;20043;-73
2023/04/24 03:50:47;;;;;;;5.55;4.90;;;;;;;-146.25;100.00;52153.28;2080408;28;20053;-73
2023/04/24 03:51:49;;;;;;;5.68;5.18;;;;;;;-146.25;100.00;52201.94;2079964;28;20041;-73
2023/04/24 03:52:55;;;;;;;6.63;5.15;;;;;;;-146.25;100.00;52183.69;2080249;28;20038;-73
2023/04/24 03:54:11;;;;;;;5.32;4.57;;;;;;;-146.25;100.00;52153.28;2072519;28;20049;-72
2023/04/24 03:55:14;;;;;;;5.43;4.93;;;;;;;-146.25;100.00;52216.13;2066316;28;20046;-73
2023/04/24 03:56:20;;;;;;;5.25;4.53;;;;;;;-146.25;100.00;52197.88;2072784;28;20045;-73
2023/04/24 03:57:22;;;;;;;5.57;5.07;;;;;;;-146.25;100.00;52214.09;2072008;28;20153;-73
2023/04/24 03:58:36;;;;;;;5.13;4.70;;;;;;;-146.25;100.00;52163.41;2074496;28;20689;-73
2023/04/24 03:59:37;;;;;;;5.28;4.78;;;;;;;-146.25;100.00;52189.78;2080453;28;23021;-73
2023/04/24 04:00:47;;;;;;;5.25;4.75;;;;;;;-146.25;100.00;52228.28;2080565;28;20046;-72
2023/04/24 04:02:17;;;;;;;5.30;4.80;;;;;;;-146.25;100.00;52191.81;2080865;28;20171;-73
2023/04/24 04:03:19;;;;;;;5.22;4.72;;;;;;;-146.25;100.00;52189.78;2080228;28;20982;-72
2023/04/24 04:04:21;;;;;;;5.03;4.53;;;;;;;-146.25;100.00;52208.03;2080747;28;20044;-72
2023/04/24 04:05:24;;;;;;;5.28;4.78;;;;;;;-146.25;100.00;52171.53;2080507;28;20049;-72
2023/04/24 04:06:26;;;;;;;5.03;4.63;;;;;;;-146.25;100.00;52214.09;2080399;28;30025;-72
2023/04/24 04:07:29;;;;;;;5.20;4.80;;;;;;;-146.25;100.00;52201.94;2079952;28;20088;-72
2023/04/24 04:08:35;;;;;;;5.45;4.43;;;;;;;-146.25;100.00;52208.03;2080497;28;20100;-72
2023/04/24 04:09:39;;;;;;;4.45;4.05;;;;;;;-146.25;100.00;52175.56;2080241;28;20045;-72
2023/04/24 04:10:40;;;;;;;5.18;4.68;;;;;;;-146.25;100.00;52199.91;2080846;28;20050;-74
2023/04/24 04:11:42;;;;;;;4.75;4.35;;;;;;;-146.25;100.00;52201.94;2079577;28;27148;-72
2023/04/24 04:12:46;;;;;;;4.63;4.15;;;;;;;-146.25;100.00;52206.00;2080537;28;20919;-73
2023/04/24 04:13:48;;;;;;;4.65;4.25;;;;;;;-146.25;100.00;52187.75;2080081;28;20501;-72
2023/04/24 04:14:53;;;;;;;5.47;4.85;;;;;;;-146.25;100.00;52242.50;2080797;28;20030;-72
2023/04/24 04:15:55;;;;;;;5.63;4.47;;;;;;;-146.25;100.00;52199.91;2080249;28;20050;-72
2023/04/24 04:16:57;;;;;;;4.60;4.20;;;;;;;-146.25;100.00;52199.91;2072444;28;20034;-71
2023/04/24 04:17:58;;;;;;;5.10;4.70;;;;;;;-146.25;100.00;52177.59;2063620;28;33726;-71
2023/04/24 04:19:02;;;;;;;5.00;4.60;;;;;;;-146.25;100.00;52173.56;2072553;28;20882;-71
2023/04/24 04:20:09;;;;;;;5.25;4.32;;;;;;;-146.25;100.00;52222.22;2080183;28;20034;-72
2023/04/24 04:21:12;;;;;;;4.85;4.45;;;;;;;-146.25;100.00;52224.25;2080413;28;20041;-71
2023/04/24 04:22:15;;;;;;;5.38;4.65;;;;;;;-146.25;100.00;52193.81;2071860;28;20153;-72
2023/04/24 04:23:23;;;;;;;5.40;4.90;;;;;;;-146.25;100.00;52167.47;2073119;28;20142;-72
2023/04/24 04:24:40;;;;;;;4.63;4.22;;;;;;;-146.25;100.00;52201.94;2080486;28;20050;-72
2023/04/24 04:25:43;;;;;;;4.57;4.18;;;;;;;-146.25;100.00;52236.41;2080224;28;20918;-72
2023/04/24 04:26:46;;;;;;;5.90;5.30;;;;;;;-146.25;100.00;52189.78;2079988;28;20889;-72
2023/04/24 04:27:57;;;;;;;6.57;5.30;;;;;;;-146.25;100.00;52210.03;2080942;28;20046;-72
2023/04/24 04:29:03;;;;;;;5.63;5.13;;;;;;;-146.25;100.00;52177.59;2080216;28;20042;-72
2023/04/24 04:30:08;;;;;;;6.90;5.47;;;;;;;-146.25;100.00;52208.03;2072010;28;20052;-71
2023/04/24 04:31:23;;;;;;;5.70;5.20;;;;;;;-146.25;100.00;52161.38;2072026;28;20054;-72
2023/04/24 04:32:25;;;;;;;5.80;5.30;;;;;;;-146.25;100.00;52183.69;2064348;28;20118;-72
2023/04/24 04:33:28;;;;;;;6.22;5.40;;;;;;;-146.25;100.00;52197.88;2072530;28;20216;-72
2023/04/24 04:34:31;;;;;;;6.30;5.70;;;;;;;-146.25;100.00;52179.63;2079834;28;20040;-72
2023/04/24 04:35:34;;;;;;;6.75;6.05;;;;;;;-146.25;100.00;52203.97;2080544;28;20834;-72
2023/04/24 04:36:36;;;;;;;6.78;5.95;;;;;;;-146.25;100.00;52208.03;2080241;28;20042;-72
2023/04/24 04:37:51;;;;;;;7.47;6.78;;;;;;;-146.25;100.00;52161.38;2080279;28;20085;-72
2023/04/24 04:39:03;;;;;;;6.90;6.20;;;;;;;-146.25;100.00;52193.81;2080392;28;20046;-71
2023/04/24 04:40:19;;;;;;;7.93;6.22;;;;;;;-146.25;100.00;52169.50;2072049;28;20047;-72
2023/04/24 04:41:26;;;;;;;7.60;6.82;;;;;;;-146.25;100.00;52222.22;2072479;28;20086;-71
2023/04/24 04:42:28;;;;;;;7.40;6.28;;;;;;;-146.25;100.00;52169.50;2078993;28;20112;-72
2023/04/24 04:43:30;;;;;;;7.00;6.30;;;;;;;-146.25;100.00;52179.63;2079998;28;20803;-72
2023/04/24 04:44:35;;;;;;;7.32;6.10;;;;;;;-146.25;100.00;52238.44;2080126;28;20034;-72
2023/04/24 04:45:40;;;;;;;6.97;6.38;;;;;;;-146.25;100.00;52212.06;2080226;28;20046;-71
2023/04/24 04:47:05;;;;;;;7.00;6.30;;;;;;;-146.25;100.00;52210.03;2059661;28;20058;-72
2023/04/24 04:48:12;;;;;;;7.53;6.13;;;;;;;-146.25;100.00;52201.94;2071253;28;20049;-72
2023/04/24 04:49:16;;;;;;;7.88;6.60;;;;;;;-146.25;100.00;52183.69;2071771;28;20377;-72